Latest Weather Observations for Lord Howe Island Windy Point

IDN60801

Issued at 9:02 am EDT Monday 5 December 2016 (issued every 30 minutes, with the page automatically refreshed every 10 minutes)

About weather observations | Map of weather stations | Latest weather observations for NSW | Other Formats
Station Details ID: 200715 Name: LORD HOWE ISLAND WINDY POINT Lat: -31.54 Lon: 159.07 Height: 4.0 m
Data from the previous 72 hours. | See also: Recent months for locations in New South Wales
Date/Time
EDT
Temp
°C
App
Temp
°C
Dew
Point
°C
Rel
Hum
%
Delta-T
°C
Wind Press
QNH
hPa
Press
MSL
hPa
Rain since
9am
mm
Dir  Spd
km/h
Gust
km/h
Spd
kts
Gust
kts
05/09:00am - - - - - NW 15 22 8 12 - - -
05/08:30am - - - - - NW 19 28 10 15 - - -
05/08:00am - - - - - NW 17 26 9 14 - - -
05/07:30am - - - - - NW 17 28 9 15 - - -
05/07:00am - - - - - NW 17 24 9 13 - - -
05/06:30am - - - - - NNW 13 24 7 13 - - -
05/06:00am - - - - - NNW 17 26 9 14 - - -
05/05:30am - - - - - NW 13 20 7 11 - - -
05/05:00am - - - - - NNW 7 11 4 6 - - -
05/04:30am - - - - - NW 13 19 7 10 - - -
05/04:00am - - - - - NW 15 20 8 11 - - -
05/03:30am - - - - - NW 13 19 7 10 - - -
05/03:00am - - - - - NNW 17 22 9 12 - - -
05/02:30am - - - - - NNW 19 30 10 16 - - -
05/02:00am - - - - - NNW 17 30 9 16 - - -
05/01:30am - - - - - NW 13 20 7 11 - - -
05/01:00am - - - - - NNW 11 17 6 9 - - -
05/12:30am - - - - - NNW 13 26 7 14 - - -
05/12:00am - - - - - NW 11 19 6 10 - - -
 
Date/Time
EDT
Temp
°C
App
Temp
°C
Dew
Point
°C
Rel
Hum
%
Delta-T
°C
Wind Press
QNH
hPa
Press
MSL
hPa
Rain since
9am
mm
Dir  Spd
km/h
Gust
km/h
Spd
kts
Gust
kts
04/11:30pm - - - - - NNW 13 24 7 13 - - -
04/11:00pm - - - - - NW 9 15 5 8 - - -
04/10:30pm - - - - - N 7 15 4 8 - - -
04/10:00pm - - - - - NW 11 19 6 10 - - -
04/09:30pm - - - - - NW 7 13 4 7 - - -
04/09:00pm - - - - - NW 9 15 5 8 - - -
04/08:30pm - - - - - NW 11 17 6 9 - - -
04/08:00pm - - - - - NNW 11 19 6 10 - - -
04/07:30pm - - - - - NW 11 20 6 11 - - -
04/07:00pm - - - - - NNW 9 15 5 8 - - -
04/06:30pm - - - - - NW 11 17 6 9 - - -
04/06:00pm - - - - - NW 13 20 7 11 - - -
04/05:30pm - - - - - WNW 15 24 8 13 - - -
04/05:00pm - - - - - WNW 17 26 9 14 - - -
04/04:30pm - - - - - NW 17 26 9 14 - - -
04/04:00pm - - - - - NW 17 28 9 15 - - -
04/03:30pm - - - - - WNW 15 26 8 14 - - -
04/03:00pm - - - - - NW 22 28 12 15 - - -
04/02:30pm - - - - - NW 22 32 12 17 - - -
04/02:00pm - - - - - NW 24 30 13 16 - - -
04/01:30pm - - - - - NW 22 28 12 15 - - -
04/01:00pm - - - - - NW 22 28 12 15 - - -
04/12:30pm - - - - - NW 24 30 13 16 - - -
04/12:00pm - - - - - NW 22 28 12 15 - - -
04/11:30am - - - - - NW 20 24 11 13 - - -
04/11:00am - - - - - NW 22 28 12 15 - - -
04/10:30am - - - - - NW 22 30 12 16 - - -
04/10:00am - - - - - NW 17 26 9 14 - - -
04/09:30am - - - - - NW 19 28 10 15 - - -
04/09:00am - - - - - NW 17 24 9 13 - - -
04/08:30am - - - - - NW 17 26 9 14 - - -
04/08:00am - - - - - NW 13 19 7 10 - - -
04/07:30am - - - - - NW 13 24 7 13 - - -
04/07:00am - - - - - NW 11 20 6 11 - - -
04/06:30am - - - - - NW 15 22 8 12 - - -
04/06:00am - - - - - NW 13 20 7 11 - - -
04/05:30am - - - - - NNW 11 20 6 11 - - -
04/05:00am - - - - - WNW 9 17 5 9 - - -
04/04:30am - - - - - ENE 7 13 4 7 - - -
04/04:00am - - - - - WNW 9 17 5 9 - - -
04/03:30am - - - - - NW 11 20 6 11 - - -
04/03:00am - - - - - NNW 9 20 5 11 - - -
04/02:30am - - - - - NNW 17 26 9 14 - - -
04/02:00am - - - - - NNW 17 32 9 17 - - -
04/01:30am - - - - - NW 20 32 11 17 - - -
04/01:00am - - - - - NW 19 32 10 17 - - -
04/12:30am - - - - - NNW 17 22 9 12 - - -
04/12:00am - - - - - NW 9 17 5 9 - - -
 
Date/Time
EDT
Temp
°C
App
Temp
°C
Dew
Point
°C
Rel
Hum
%
Delta-T
°C
Wind Press
QNH
hPa
Press
MSL
hPa
Rain since
9am
mm
Dir  Spd
km/h
Gust
km/h
Spd
kts
Gust
kts
03/11:30pm - - - - - N 7 15 4 8 - - -
03/11:00pm - - - - - NNE 11 20 6 11 - - -
03/10:30pm - - - - - NNE 11 17 6 9 - - -
03/10:00pm - - - - - NNE 7 19 4 10 - - -
03/09:30pm - - - - - NNE 11 19 6 10 - - -
03/09:00pm - - - - - NNE 11 22 6 12 - - -
03/08:30pm - - - - - N 9 19 5 10 - - -
03/08:00pm - - - - - NNE 6 15 3 8 - - -
03/07:30pm - - - - - NW 9 20 5 11 - - -
03/07:00pm - - - - - WNW 9 17 5 9 - - -
03/06:30pm - - - - - WNW 9 20 5 11 - - -
03/06:00pm - - - - - NNW 9 20 5 11 - - -
03/05:30pm - - - - - NW 13 24 7 13 - - -
03/05:00pm - - - - - NNW 15 24 8 13 - - -
03/04:30pm - - - - - NNW 13 24 7 13 - - -
03/04:00pm - - - - - NNW 17 32 9 17 - - -
03/03:30pm - - - - - NNW 19 32 10 17 - - -
03/03:00pm - - - - - NW 20 33 11 18 - - -
03/02:30pm - - - - - NW 20 33 11 18 - - -
03/02:00pm - - - - - NW 20 33 11 18 - - -
03/01:30pm - - - - - NW 20 33 11 18 - - -
03/01:00pm - - - - - NW 22 35 12 19 - - -
03/12:30pm - - - - - NW 20 33 11 18 - - -
03/12:00pm - - - - - NW 17 26 9 14 - - -
03/11:30am - - - - - N 19 30 10 16 - - -
03/11:00am - - - - - N 15 26 8 14 - - -
03/10:30am - - - - - N 15 24 8 13 - - -
03/10:00am - - - - - N 13 20 7 11 - - -
03/09:30am - - - - - N 13 22 7 12 - - -
03/09:00am - - - - - NW 15 26 8 14 - - -
03/08:30am - - - - - NW 13 26 7 14 - - -
03/08:00am - - - - - NW 15 26 8 14 - - -
03/07:30am - - - - - NNW 9 22 5 12 - - -
03/07:00am - - - - - NNW 7 24 4 13 - - -
03/06:30am - - - - - NE 2 9 1 5 - - -
03/06:00am - - - - - WNW 2 9 1 5 - - -
03/05:30am - - - - - WNW 2 7 1 4 - - -
03/05:00am - - - - - NE 6 11 3 6 - - -
03/04:30am - - - - - NE 6 13 3 7 - - -
03/04:00am - - - - - NE 6 13 3 7 - - -
03/03:30am - - - - - NW 6 11 3 6 - - -
03/03:00am - - - - - NNE 9 13 5 7 - - -
03/02:30am - - - - - NNE 7 13 4 7 - - -
03/02:00am - - - - - NNE 7 15 4 8 - - -
03/01:30am - - - - - NNW 6 11 3 6 - - -
03/01:00am - - - - - NE 6 13 3 7 - - -
03/12:30am - - - - - NNE 9 17 5 9 - - -
03/12:00am - - - - - NNE 9 15 5 8 - - -
 
Date/Time
EDT
Temp
°C
App
Temp
°C
Dew
Point
°C
Rel
Hum
%
Delta-T
°C
Wind Press
QNH
hPa
Press
MSL
hPa
Rain since
9am
mm
Dir  Spd
km/h
Gust
km/h
Spd
kts
Gust
kts
02/11:30pm - - - - - NNE 9 13 5 7 - - -
02/11:00pm - - - - - NNE 9 15 5 8 - - -
02/10:30pm - - - - - NE 7 13 4 7 - - -
02/10:00pm - - - - - NNE 9 17 5 9 - - -
02/09:30pm - - - - - NNE 9 15 5 8 - - -
02/09:00pm - - - - - NNE 9 15 5 8 - - -
02/08:30pm - - - - - NNE 7 11 4 6 - - -
02/08:00pm - - - - - NNE 9 15 5 8 - - -
02/07:30pm - - - - - NNE 9 13 5 7 - - -
02/07:00pm - - - - - NNE 13 17 7 9 - - -
02/06:30pm - - - - - N 13 17 7 9 - - -
02/06:00pm - - - - - N 15 22 8 12 - - -
02/05:30pm - - - - - N 17 24 9 13 - - -
02/05:00pm - - - - - N 19 24 10 13 - - -
02/04:30pm - - - - - NNE 15 24 8 13 - - -
02/04:00pm - - - - - NW 17 28 9 15 - - -
02/03:30pm - - - - - NW 17 28 9 15 - - -
02/03:00pm - - - - - NNE 22 28 12 15 - - -
02/02:30pm - - - - - NNW 15 26 8 14 - - -
02/02:00pm - - - - - NNE 15 24 8 13 - - -
02/01:30pm - - - - - N 17 26 9 14 - - -
02/01:00pm - - - - - N 17 28 9 15 - - -
02/12:30pm - - - - - N 17 26 9 14 - - -
02/12:00pm - - - - - N 20 28 11 15 - - -
02/11:30am - - - - - N 13 26 7 14 - - -
02/11:00am - - - - - NNE 17 26 9 14 - - -
02/10:30am - - - - - N 15 26 8 14 - - -
02/10:00am - - - - - NNE 19 28 10 15 - - -
02/09:30am - - - - - NNW 13 26 7 14 - - -

Other Formats:

Comma delimited format used in spreadsheet applications
http://www.bom.gov.au/fwo/IDN60801/IDN60801.95995.axf

JavaScript Object Notation format (JSON) in row-major order
http://www.bom.gov.au/fwo/IDN60801/IDN60801.95995.json